sensor_id;sensor_type;location;lat;lon;timestamp;P1;durP1;ratioP1;P2;durP2;ratioP2
28714;SDS011;15886;49.170;14.572;2022-09-09T00:23:30;4.15;;;3.35;;
28714;SDS011;15886;49.170;14.572;2022-09-09T00:33:20;2.78;;;2.38;;
28714;SDS011;15886;49.170;14.572;2022-09-09T00:37:12;3.72;;;2.70;;
28714;SDS011;15886;49.170;14.572;2022-09-09T00:39:42;4.95;;;3.20;;
28714;SDS011;15886;49.170;14.572;2022-09-09T00:42:27;3.13;;;2.67;;
28714;SDS011;15886;49.170;14.572;2022-09-09T00:48:21;4.65;;;2.67;;
28714;SDS011;15886;49.170;14.572;2022-09-09T00:51:02;4.35;;;2.88;;
28714;SDS011;15886;49.170;14.572;2022-09-09T00:57:40;3.20;;;2.70;;
28714;SDS011;15886;49.170;14.572;2022-09-09T01:00:19;4.75;;;2.70;;
28714;SDS011;15886;49.170;14.572;2022-09-09T01:03:18;2.80;;;2.50;;
28714;SDS011;15886;49.170;14.572;2022-09-09T01:08:53;3.30;;;3.00;;
28714;SDS011;15886;49.170;14.572;2022-09-09T01:26:15;7.40;;;3.00;;
28714;SDS011;15886;49.170;14.572;2022-09-09T01:28:58;3.42;;;3.13;;
28714;SDS011;15886;49.170;14.572;2022-09-09T01:31:39;3.40;;;3.10;;
28714;SDS011;15886;49.170;14.572;2022-09-09T01:34:13;3.30;;;3.00;;
28714;SDS011;15886;49.170;14.572;2022-09-09T01:36:57;5.80;;;3.42;;
28714;SDS011;15886;49.170;14.572;2022-09-09T01:39:27;3.97;;;3.55;;
28714;SDS011;15886;49.170;14.572;2022-09-09T01:42:02;3.28;;;2.97;;
28714;SDS011;15886;49.170;14.572;2022-09-09T01:44:32;4.75;;;3.58;;
28714;SDS011;15886;49.170;14.572;2022-09-09T01:47:06;4.10;;;3.70;;
28714;SDS011;15886;49.170;14.572;2022-09-09T01:50:20;40.50;;;4.82;;
28714;SDS011;15886;49.170;14.572;2022-09-09T01:56:47;89.10;;;5.75;;
28714;SDS011;15886;49.170;14.572;2022-09-09T02:09:12;107.88;;;7.68;;
28714;SDS011;15886;49.170;14.572;2022-09-09T02:11:55;127.18;;;7.32;;
28714;SDS011;15886;49.170;14.572;2022-09-09T02:14:42;52.83;;;5.57;;
28714;SDS011;15886;49.170;14.572;2022-09-09T02:17:44;91.97;;;6.45;;
28714;SDS011;15886;49.170;14.572;2022-09-09T02:20:26;115.10;;;6.20;;
28714;SDS011;15886;49.170;14.572;2022-09-09T02:25:51;85.63;;;5.32;;
28714;SDS011;15886;49.170;14.572;2022-09-09T02:30:59;13.35;;;3.35;;
28714;SDS011;15886;49.170;14.572;2022-09-09T02:33:36;20.48;;;3.45;;
28714;SDS011;15886;49.170;14.572;2022-09-09T02:36:11;40.38;;;4.88;;
28714;SDS011;15886;49.170;14.572;2022-09-09T02:44:50;18.95;;;4.47;;
28714;SDS011;15886;49.170;14.572;2022-09-09T02:47:32;60.28;;;4.93;;
28714;SDS011;15886;49.170;14.572;2022-09-09T02:54:40;83.20;;;5.95;;
28714;SDS011;15886;49.170;14.572;2022-09-09T02:57:16;54.58;;;5.00;;
28714;SDS011;15886;49.170;14.572;2022-09-09T02:59:50;28.23;;;5.25;;
28714;SDS011;15886;49.170;14.572;2022-09-09T03:02:22;70.22;;;5.50;;
28714;SDS011;15886;49.170;14.572;2022-09-09T03:04:57;47.28;;;5.13;;
28714;SDS011;15886;49.170;14.572;2022-09-09T03:07:26;21.48;;;3.83;;
28714;SDS011;15886;49.170;14.572;2022-09-09T03:09:58;29.67;;;3.78;;
28714;SDS011;15886;49.170;14.572;2022-09-09T03:12:27;10.00;;;3.70;;
28714;SDS011;15886;49.170;14.572;2022-09-09T03:14:55;19.73;;;3.58;;
28714;SDS011;15886;49.170;14.572;2022-09-09T03:17:24;8.30;;;2.63;;
28714;SDS011;15886;49.170;14.572;2022-09-09T03:19:54;26.65;;;3.00;;
28714;SDS011;15886;49.170;14.572;2022-09-09T03:22:23;10.13;;;2.60;;
28714;SDS011;15886;49.170;14.572;2022-09-09T03:24:57;66.10;;;3.55;;
28714;SDS011;15886;49.170;14.572;2022-09-09T03:27:27;53.92;;;3.38;;
28714;SDS011;15886;49.170;14.572;2022-09-09T03:29:55;61.90;;;3.78;;
28714;SDS011;15886;49.170;14.572;2022-09-09T03:32:24;44.92;;;3.05;;
28714;SDS011;15886;49.170;14.572;2022-09-09T03:34:56;37.10;;;2.70;;
28714;SDS011;15886;49.170;14.572;2022-09-09T03:37:25;87.00;;;4.10;;
28714;SDS011;15886;49.170;14.572;2022-09-09T03:39:54;91.35;;;4.68;;
28714;SDS011;15886;49.170;14.572;2022-09-09T03:42:25;50.15;;;3.30;;
28714;SDS011;15886;49.170;14.572;2022-09-09T03:44:57;97.78;;;4.93;;
28714;SDS011;15886;49.170;14.572;2022-09-09T03:47:30;138.13;;;8.05;;
28714;SDS011;15886;49.170;14.572;2022-09-09T03:50:05;105.28;;;6.07;;
28714;SDS011;15886;49.170;14.572;2022-09-09T03:52:37;220.18;;;7.03;;
28714;SDS011;15886;49.170;14.572;2022-09-09T03:55:14;60.55;;;3.95;;
28714;SDS011;15886;49.170;14.572;2022-09-09T03:57:43;91.68;;;4.70;;
28714;SDS011;15886;49.170;14.572;2022-09-09T04:00:23;73.80;;;3.95;;
28714;SDS011;15886;49.170;14.572;2022-09-09T04:02:53;22.80;;;2.65;;
28714;SDS011;15886;49.170;14.572;2022-09-09T04:08:21;56.10;;;3.85;;
28714;SDS011;15886;49.170;14.572;2022-09-09T04:10:50;18.10;;;3.47;;
28714;SDS011;15886;49.170;14.572;2022-09-09T04:16:32;19.73;;;3.83;;
28714;SDS011;15886;49.170;14.572;2022-09-09T04:23:06;28.50;;;3.72;;
28714;SDS011;15886;49.170;14.572;2022-09-09T04:25:51;23.38;;;3.10;;
28714;SDS011;15886;49.170;14.572;2022-09-09T04:29:00;5.97;;;2.60;;
28714;SDS011;15886;49.170;14.572;2022-09-09T04:31:29;37.55;;;3.25;;
28714;SDS011;15886;49.170;14.572;2022-09-09T04:33:58;10.70;;;2.83;;
28714;SDS011;15886;49.170;14.572;2022-09-09T04:36:36;25.35;;;3.33;;
28714;SDS011;15886;49.170;14.572;2022-09-09T04:39:34;43.08;;;3.40;;
28714;SDS011;15886;49.170;14.572;2022-09-09T04:42:39;8.25;;;2.80;;
28714;SDS011;15886;49.170;14.572;2022-09-09T04:45:42;16.40;;;2.63;;
28714;SDS011;15886;49.170;14.572;2022-09-09T04:51:54;35.30;;;2.47;;
28714;SDS011;15886;49.170;14.572;2022-09-09T04:54:32;23.73;;;3.00;;
28714;SDS011;15886;49.170;14.572;2022-09-09T04:57:06;66.63;;;4.00;;
28714;SDS011;15886;49.170;14.572;2022-09-09T04:59:52;6.53;;;2.53;;
28714;SDS011;15886;49.170;14.572;2022-09-09T05:02:21;8.63;;;2.35;;
28714;SDS011;15886;49.170;14.572;2022-09-09T05:14:09;14.80;;;2.53;;
28714;SDS011;15886;49.170;14.572;2022-09-09T08:13:20;5.63;;;3.60;;
28714;SDS011;15886;49.170;14.572;2022-09-09T08:52:00;4.88;;;2.55;;
28714;SDS011;15886;49.170;14.572;2022-09-09T09:17:16;7.03;;;3.50;;
28714;SDS011;15886;49.170;14.572;2022-09-09T09:20:05;6.03;;;3.55;;
28714;SDS011;15886;49.170;14.572;2022-09-09T09:22:54;5.72;;;3.63;;
28714;SDS011;15886;49.170;14.572;2022-09-09T09:26:34;4.60;;;3.42;;
28714;SDS011;15886;49.170;14.572;2022-09-09T09:29:54;3.35;;;2.42;;
28714;SDS011;15886;49.170;14.572;2022-09-09T09:33:18;2.85;;;2.15;;
28714;SDS011;15886;49.170;14.572;2022-09-09T09:36:39;3.00;;;2.70;;
28714;SDS011;15886;49.170;14.572;2022-09-09T09:39:34;4.75;;;2.78;;
28714;SDS011;15886;49.170;14.572;2022-09-09T09:42:27;3.47;;;1.30;;
28714;SDS011;15886;49.170;14.572;2022-09-09T09:50:26;1.55;;;1.25;;
28714;SDS011;15886;49.170;14.572;2022-09-09T09:52:58;4.95;;;1.30;;
28714;SDS011;15886;49.170;14.572;2022-09-09T09:55:33;2.45;;;1.27;;
28714;SDS011;15886;49.170;14.572;2022-09-09T10:05:06;3.88;;;1.35;;
28714;SDS011;15886;49.170;14.572;2022-09-09T10:08:23;2.60;;;1.00;;
28714;SDS011;15886;49.170;14.572;2022-09-09T10:18:22;1.58;;;1.10;;
28714;SDS011;15886;49.170;14.572;2022-09-09T10:21:39;2.13;;;1.42;;
28714;SDS011;15886;49.170;14.572;2022-09-09T10:24:43;2.05;;;1.70;;
28714;SDS011;15886;49.170;14.572;2022-09-09T10:33:09;1.73;;;1.15;;
28714;SDS011;15886;49.170;14.572;2022-09-09T10:35:50;9.77;;;4.13;;
28714;SDS011;15886;49.170;14.572;2022-09-09T10:38:47;2.60;;;1.35;;
28714;SDS011;15886;49.170;14.572;2022-09-09T10:45:13;5.30;;;1.60;;
28714;SDS011;15886;49.170;14.572;2022-09-09T10:50:55;1.98;;;1.20;;
28714;SDS011;15886;49.170;14.572;2022-09-09T11:00:22;5.50;;;1.52;;
28714;SDS011;15886;49.170;14.572;2022-09-09T11:03:01;2.38;;;1.10;;
28714;SDS011;15886;49.170;14.572;2022-09-09T11:06:14;1.85;;;0.95;;
28714;SDS011;15886;49.170;14.572;2022-09-09T11:08:59;3.92;;;1.20;;
28714;SDS011;15886;49.170;14.572;2022-09-09T11:15:00;3.63;;;1.10;;
28714;SDS011;15886;49.170;14.572;2022-09-09T11:20:59;3.35;;;1.20;;
28714;SDS011;15886;49.170;14.572;2022-09-09T11:32:57;5.57;;;1.50;;
28714;SDS011;15886;49.170;14.572;2022-09-09T11:36:22;4.03;;;1.10;;
28714;SDS011;15886;49.170;14.572;2022-09-09T11:38:52;1.75;;;1.08;;
28714;SDS011;15886;49.170;14.572;2022-09-09T11:41:32;1.70;;;0.90;;
28714;SDS011;15886;49.170;14.572;2022-09-09T11:44:35;2.75;;;1.20;;
28714;SDS011;15886;49.170;14.572;2022-09-09T11:47:28;2.40;;;1.20;;
28714;SDS011;15886;49.170;14.572;2022-09-09T11:50:44;3.65;;;1.20;;
28714;SDS011;15886;49.170;14.572;2022-09-09T11:53:33;4.53;;;1.23;;
28714;SDS011;15886;49.170;14.572;2022-09-09T11:59:33;1.95;;;1.00;;
28714;SDS011;15886;49.170;14.572;2022-09-09T12:02:13;3.03;;;1.60;;
28714;SDS011;15886;49.170;14.572;2022-09-09T12:08:21;2.25;;;1.30;;
28714;SDS011;15886;49.170;14.572;2022-09-09T12:11:00;4.38;;;1.50;;
28714;SDS011;15886;49.170;14.572;2022-09-09T12:13:35;2.88;;;1.35;;
28714;SDS011;15886;49.170;14.572;2022-09-09T12:16:55;5.95;;;1.77;;
28714;SDS011;15886;49.170;14.572;2022-09-09T12:19:14;1.92;;;1.20;;
28714;SDS011;15886;49.170;14.572;2022-09-09T12:21:51;2.70;;;1.27;;
28714;SDS011;15886;49.170;14.572;2022-09-09T12:27:28;3.63;;;1.67;;
28714;SDS011;15886;49.170;14.572;2022-09-09T12:30:08;2.70;;;1.13;;
28714;SDS011;15886;49.170;14.572;2022-09-09T12:32:58;4.20;;;1.23;;
28714;SDS011;15886;49.170;14.572;2022-09-09T12:35:36;1.80;;;1.05;;
28714;SDS011;15886;49.170;14.572;2022-09-09T12:38:06;2.85;;;1.27;;
28714;SDS011;15886;49.170;14.572;2022-09-09T12:40:42;4.60;;;1.60;;
28714;SDS011;15886;49.170;14.572;2022-09-09T12:43:23;3.97;;;1.20;;
28714;SDS011;15886;49.170;14.572;2022-09-09T12:46:07;2.08;;;1.17;;
28714;SDS011;15886;49.170;14.572;2022-09-09T12:48:58;3.92;;;1.65;;
28714;SDS011;15886;49.170;14.572;2022-09-09T12:51:32;1.92;;;1.38;;
28714;SDS011;15886;49.170;14.572;2022-09-09T12:54:04;1.95;;;1.52;;
28714;SDS011;15886;49.170;14.572;2022-09-09T12:56:44;7.47;;;1.40;;
28714;SDS011;15886;49.170;14.572;2022-09-09T13:00:03;5.10;;;1.60;;
28714;SDS011;15886;49.170;14.572;2022-09-09T13:02:23;3.22;;;1.50;;
28714;SDS011;15886;49.170;14.572;2022-09-09T13:04:53;5.07;;;1.50;;
28714;SDS011;15886;49.170;14.572;2022-09-09T13:07:21;3.78;;;1.40;;
28714;SDS011;15886;49.170;14.572;2022-09-09T13:09:49;2.17;;;1.00;;
28714;SDS011;15886;49.170;14.572;2022-09-09T13:12:19;3.60;;;1.40;;
28714;SDS011;15886;49.170;14.572;2022-09-09T13:14:53;3.15;;;1.20;;
28714;SDS011;15886;49.170;14.572;2022-09-09T13:17:24;3.28;;;1.52;;
28714;SDS011;15886;49.170;14.572;2022-09-09T13:19:56;3.08;;;1.10;;
28714;SDS011;15886;49.170;14.572;2022-09-09T13:22:42;1.63;;;1.00;;
28714;SDS011;15886;49.170;14.572;2022-09-09T13:27:40;1.38;;;1.00;;
28714;SDS011;15886;49.170;14.572;2022-09-09T13:35:45;5.22;;;1.08;;
28714;SDS011;15886;49.170;14.572;2022-09-09T13:38:17;2.95;;;1.02;;
28714;SDS011;15886;49.170;14.572;2022-09-09T13:40:55;3.85;;;1.00;;
28714;SDS011;15886;49.170;14.572;2022-09-09T13:43:26;6.50;;;1.48;;
28714;SDS011;15886;49.170;14.572;2022-09-09T13:45:56;3.53;;;1.20;;
28714;SDS011;15886;49.170;14.572;2022-09-09T13:48:29;2.33;;;1.10;;
28714;SDS011;15886;49.170;14.572;2022-09-09T13:51:00;2.28;;;1.10;;
28714;SDS011;15886;49.170;14.572;2022-09-09T13:53:31;3.85;;;1.33;;
28714;SDS011;15886;49.170;14.572;2022-09-09T13:56:00;4.47;;;1.10;;
28714;SDS011;15886;49.170;14.572;2022-09-09T13:58:29;2.17;;;1.33;;
28714;SDS011;15886;49.170;14.572;2022-09-09T14:00:57;4.20;;;1.55;;
28714;SDS011;15886;49.170;14.572;2022-09-09T14:03:26;3.17;;;1.30;;
28714;SDS011;15886;49.170;14.572;2022-09-09T14:05:54;1.75;;;1.17;;
28714;SDS011;15886;49.170;14.572;2022-09-09T14:08:24;7.00;;;1.50;;
28714;SDS011;15886;49.170;14.572;2022-09-09T14:11:12;5.13;;;1.58;;
28714;SDS011;15886;49.170;14.572;2022-09-09T14:13:41;5.32;;;1.80;;
28714;SDS011;15886;49.170;14.572;2022-09-09T14:16:09;3.42;;;1.42;;
28714;SDS011;15886;49.170;14.572;2022-09-09T14:18:38;2.53;;;1.13;;
28714;SDS011;15886;49.170;14.572;2022-09-09T14:23:56;3.15;;;1.50;;
28714;SDS011;15886;49.170;14.572;2022-09-09T14:26:46;3.65;;;1.58;;
28714;SDS011;15886;49.170;14.572;2022-09-09T14:32:24;1.67;;;1.40;;
28714;SDS011;15886;49.170;14.572;2022-09-09T14:34:56;2.72;;;1.25;;
28714;SDS011;15886;49.170;14.572;2022-09-09T14:37:24;3.95;;;1.40;;
28714;SDS011;15886;49.170;14.572;2022-09-09T14:39:53;1.73;;;1.33;;
28714;SDS011;15886;49.170;14.572;2022-09-09T14:42:22;2.63;;;1.58;;
28714;SDS011;15886;49.170;14.572;2022-09-09T14:44:50;5.47;;;1.38;;
28714;SDS011;15886;49.170;14.572;2022-09-09T14:47:18;5.55;;;1.65;;
28714;SDS011;15886;49.170;14.572;2022-09-09T14:49:46;3.05;;;1.75;;
28714;SDS011;15886;49.170;14.572;2022-09-09T14:52:16;4.75;;;1.60;;
28714;SDS011;15886;49.170;14.572;2022-09-09T14:54:44;3.30;;;1.50;;
28714;SDS011;15886;49.170;14.572;2022-09-09T14:57:13;5.50;;;2.63;;
28714;SDS011;15886;49.170;14.572;2022-09-09T14:59:41;6.43;;;1.85;;
28714;SDS011;15886;49.170;14.572;2022-09-09T15:02:09;2.10;;;1.90;;
28714;SDS011;15886;49.170;14.572;2022-09-09T15:04:37;3.40;;;1.80;;
28714;SDS011;15886;49.170;14.572;2022-09-09T15:07:05;4.43;;;3.10;;
28714;SDS011;15886;49.170;14.572;2022-09-09T15:09:36;5.53;;;2.20;;
28714;SDS011;15886;49.170;14.572;2022-09-09T15:12:07;6.00;;;3.08;;
28714;SDS011;15886;49.170;14.572;2022-09-09T15:14:43;7.40;;;3.35;;
28714;SDS011;15886;49.170;14.572;2022-09-09T15:17:18;6.18;;;4.00;;
28714;SDS011;15886;49.170;14.572;2022-09-09T15:20:05;6.90;;;4.22;;
28714;SDS011;15886;49.170;14.572;2022-09-09T15:23:21;7.57;;;4.05;;
28714;SDS011;15886;49.170;14.572;2022-09-09T15:26:21;4.13;;;2.05;;
28714;SDS011;15886;49.170;14.572;2022-09-09T15:28:53;4.50;;;1.77;;
28714;SDS011;15886;49.170;14.572;2022-09-09T15:31:23;2.13;;;1.65;;
28714;SDS011;15886;49.170;14.572;2022-09-09T15:34:06;2.70;;;1.83;;
28714;SDS011;15886;49.170;14.572;2022-09-09T15:36:40;6.22;;;3.67;;
28714;SDS011;15886;49.170;14.572;2022-09-09T15:39:14;4.15;;;3.78;;
28714;SDS011;15886;49.170;14.572;2022-09-09T15:41:54;7.68;;;3.67;;
28714;SDS011;15886;49.170;14.572;2022-09-09T15:44:23;3.97;;;2.40;;
28714;SDS011;15886;49.170;14.572;2022-09-09T15:46:53;6.70;;;2.72;;
28714;SDS011;15886;49.170;14.572;2022-09-09T15:49:22;7.82;;;2.50;;
28714;SDS011;15886;49.170;14.572;2022-09-09T15:51:59;6.45;;;2.60;;
28714;SDS011;15886;49.170;14.572;2022-09-09T15:54:32;5.40;;;2.60;;
28714;SDS011;15886;49.170;14.572;2022-09-09T15:57:03;5.13;;;1.88;;
28714;SDS011;15886;49.170;14.572;2022-09-09T15:59:32;7.70;;;2.50;;
28714;SDS011;15886;49.170;14.572;2022-09-09T16:02:02;4.35;;;2.33;;
28714;SDS011;15886;49.170;14.572;2022-09-09T16:04:31;4.85;;;2.15;;
28714;SDS011;15886;49.170;14.572;2022-09-09T16:07:02;3.05;;;1.70;;
28714;SDS011;15886;49.170;14.572;2022-09-09T16:09:32;3.70;;;2.17;;
28714;SDS011;15886;49.170;14.572;2022-09-09T16:12:02;2.60;;;2.00;;
28714;SDS011;15886;49.170;14.572;2022-09-09T16:14:33;3.30;;;1.98;;
28714;SDS011;15886;49.170;14.572;2022-09-09T16:17:03;5.03;;;2.33;;
28714;SDS011;15886;49.170;14.572;2022-09-09T16:19:32;3.38;;;1.90;;
28714;SDS011;15886;49.170;14.572;2022-09-09T16:22:02;4.93;;;2.00;;
28714;SDS011;15886;49.170;14.572;2022-09-09T16:24:32;4.00;;;2.05;;
28714;SDS011;15886;49.170;14.572;2022-09-09T16:27:00;3.58;;;2.33;;
28714;SDS011;15886;49.170;14.572;2022-09-09T16:29:28;2.50;;;1.90;;
28714;SDS011;15886;49.170;14.572;2022-09-09T16:31:57;6.25;;;2.60;;
28714;SDS011;15886;49.170;14.572;2022-09-09T16:34:29;4.40;;;2.47;;
28714;SDS011;15886;49.170;14.572;2022-09-09T16:36:57;3.00;;;2.00;;
28714;SDS011;15886;49.170;14.572;2022-09-09T16:39:25;5.60;;;2.42;;
28714;SDS011;15886;49.170;14.572;2022-09-09T16:41:54;2.80;;;1.80;;
28714;SDS011;15886;49.170;14.572;2022-09-09T16:44:22;5.53;;;2.22;;
28714;SDS011;15886;49.170;14.572;2022-09-09T16:46:49;3.80;;;2.05;;
28714;SDS011;15886;49.170;14.572;2022-09-09T16:49:21;4.60;;;2.33;;
28714;SDS011;15886;49.170;14.572;2022-09-09T16:51:49;3.35;;;1.88;;
28714;SDS011;15886;49.170;14.572;2022-09-09T16:54:21;3.35;;;2.20;;
28714;SDS011;15886;49.170;14.572;2022-09-09T16:56:53;4.80;;;2.03;;
28714;SDS011;15886;49.170;14.572;2022-09-09T16:59:22;5.55;;;2.05;;
28714;SDS011;15886;49.170;14.572;2022-09-09T17:01:54;4.82;;;2.00;;
28714;SDS011;15886;49.170;14.572;2022-09-09T17:04:26;3.78;;;1.90;;
28714;SDS011;15886;49.170;14.572;2022-09-09T17:06:55;3.50;;;2.10;;
28714;SDS011;15886;49.170;14.572;2022-09-09T17:09:24;3.08;;;1.80;;
28714;SDS011;15886;49.170;14.572;2022-09-09T17:11:58;3.28;;;1.90;;
28714;SDS011;15886;49.170;14.572;2022-09-09T17:14:29;2.58;;;1.70;;
28714;SDS011;15886;49.170;14.572;2022-09-09T17:23:25;2.20;;;2.00;;
28714;SDS011;15886;49.170;14.572;2022-09-09T17:26:01;4.63;;;1.98;;
28714;SDS011;15886;49.170;14.572;2022-09-09T17:28:37;7.00;;;2.30;;
28714;SDS011;15886;49.170;14.572;2022-09-09T17:31:10;3.75;;;2.40;;
28714;SDS011;15886;49.170;14.572;2022-09-09T17:33:49;2.63;;;2.08;;
28714;SDS011;15886;49.170;14.572;2022-09-09T17:36:27;5.05;;;2.22;;
28714;SDS011;15886;49.170;14.572;2022-09-09T17:39:02;3.10;;;2.20;;
28714;SDS011;15886;49.170;14.572;2022-09-09T17:41:58;4.15;;;2.20;;
28714;SDS011;15886;49.170;14.572;2022-09-09T17:45:06;2.97;;;2.15;;
28714;SDS011;15886;49.170;14.572;2022-09-09T17:48:18;2.17;;;1.77;;
28714;SDS011;15886;49.170;14.572;2022-09-09T17:50:46;4.20;;;2.08;;
28714;SDS011;15886;49.170;14.572;2022-09-09T17:53:16;4.85;;;1.95;;
28714;SDS011;15886;49.170;14.572;2022-09-09T17:55:43;2.88;;;2.05;;
28714;SDS011;15886;49.170;14.572;2022-09-09T17:58:13;3.03;;;2.10;;
28714;SDS011;15886;49.170;14.572;2022-09-09T18:00:42;3.97;;;2.10;;
28714;SDS011;15886;49.170;14.572;2022-09-09T18:03:11;5.57;;;2.30;;
28714;SDS011;15886;49.170;14.572;2022-09-09T18:05:40;5.47;;;2.15;;
28714;SDS011;15886;49.170;14.572;2022-09-09T18:08:08;3.95;;;2.13;;
28714;SDS011;15886;49.170;14.572;2022-09-09T18:10:36;3.22;;;2.10;;
28714;SDS011;15886;49.170;14.572;2022-09-09T18:13:04;2.92;;;2.20;;
28714;SDS011;15886;49.170;14.572;2022-09-09T18:15:36;3.85;;;1.90;;
28714;SDS011;15886;49.170;14.572;2022-09-09T18:18:14;4.72;;;2.20;;
28714;SDS011;15886;49.170;14.572;2022-09-09T18:20:43;3.78;;;2.35;;
28714;SDS011;15886;49.170;14.572;2022-09-09T18:23:11;4.78;;;2.33;;
28714;SDS011;15886;49.170;14.572;2022-09-09T18:25:40;4.70;;;2.10;;
28714;SDS011;15886;49.170;14.572;2022-09-09T18:28:08;5.90;;;2.13;;
28714;SDS011;15886;49.170;14.572;2022-09-09T18:30:38;6.63;;;2.20;;
28714;SDS011;15886;49.170;14.572;2022-09-09T18:33:06;3.15;;;2.20;;
28714;SDS011;15886;49.170;14.572;2022-09-09T18:35:35;4.05;;;2.00;;
28714;SDS011;15886;49.170;14.572;2022-09-09T18:38:03;5.57;;;2.28;;
28714;SDS011;15886;49.170;14.572;2022-09-09T18:40:31;5.55;;;1.73;;
28714;SDS011;15886;49.170;14.572;2022-09-09T18:42:59;2.95;;;1.58;;
28714;SDS011;15886;49.170;14.572;2022-09-09T18:45:27;3.33;;;1.90;;
28714;SDS011;15886;49.170;14.572;2022-09-09T18:47:55;4.53;;;2.13;;
28714;SDS011;15886;49.170;14.572;2022-09-09T18:50:24;3.22;;;1.67;;
28714;SDS011;15886;49.170;14.572;2022-09-09T18:52:52;2.47;;;1.90;;
28714;SDS011;15886;49.170;14.572;2022-09-09T18:55:20;3.05;;;1.70;;
28714;SDS011;15886;49.170;14.572;2022-09-09T18:57:48;3.45;;;1.80;;
28714;SDS011;15886;49.170;14.572;2022-09-09T19:00:16;3.63;;;1.85;;
28714;SDS011;15886;49.170;14.572;2022-09-09T19:02:47;1.58;;;1.48;;
28714;SDS011;15886;49.170;14.572;2022-09-09T19:05:18;2.33;;;1.95;;
28714;SDS011;15886;49.170;14.572;2022-09-09T19:07:46;4.63;;;1.88;;
28714;SDS011;15886;49.170;14.572;2022-09-09T19:10:14;3.13;;;1.88;;
28714;SDS011;15886;49.170;14.572;2022-09-09T19:12:42;4.45;;;2.05;;
28714;SDS011;15886;49.170;14.572;2022-09-09T19:15:10;3.80;;;2.00;;
28714;SDS011;15886;49.170;14.572;2022-09-09T19:17:38;3.10;;;2.13;;
28714;SDS011;15886;49.170;14.572;2022-09-09T19:20:06;1.60;;;1.50;;
28714;SDS011;15886;49.170;14.572;2022-09-09T19:22:35;3.35;;;2.00;;
28714;SDS011;15886;49.170;14.572;2022-09-09T19:25:03;3.60;;;1.80;;
28714;SDS011;15886;49.170;14.572;2022-09-09T19:27:32;3.45;;;1.73;;
28714;SDS011;15886;49.170;14.572;2022-09-09T19:30:01;6.18;;;1.92;;
28714;SDS011;15886;49.170;14.572;2022-09-09T19:32:29;4.13;;;1.90;;
28714;SDS011;15886;49.170;14.572;2022-09-09T19:35:17;2.17;;;1.70;;
28714;SDS011;15886;49.170;14.572;2022-09-09T19:37:46;4.65;;;1.90;;
28714;SDS011;15886;49.170;14.572;2022-09-09T19:40:14;6.72;;;2.10;;
28714;SDS011;15886;49.170;14.572;2022-09-09T19:42:42;3.45;;;1.90;;
28714;SDS011;15886;49.170;14.572;2022-09-09T19:45:10;5.90;;;2.38;;
28714;SDS011;15886;49.170;14.572;2022-09-09T19:47:38;2.25;;;2.05;;
28714;SDS011;15886;49.170;14.572;2022-09-09T19:50:06;3.60;;;2.08;;
28714;SDS011;15886;49.170;14.572;2022-09-09T19:52:34;6.13;;;2.10;;
28714;SDS011;15886;49.170;14.572;2022-09-09T19:55:02;2.88;;;2.00;;
28714;SDS011;15886;49.170;14.572;2022-09-09T19:57:31;4.18;;;1.88;;
28714;SDS011;15886;49.170;14.572;2022-09-09T19:59:59;3.63;;;2.05;;
28714;SDS011;15886;49.170;14.572;2022-09-09T20:02:27;4.22;;;1.88;;
28714;SDS011;15886;49.170;14.572;2022-09-09T20:04:54;3.70;;;1.88;;
28714;SDS011;15886;49.170;14.572;2022-09-09T20:07:22;3.95;;;1.95;;
28714;SDS011;15886;49.170;14.572;2022-09-09T20:09:50;6.65;;;2.33;;
28714;SDS011;15886;49.170;14.572;2022-09-09T20:12:21;3.63;;;2.33;;
28714;SDS011;15886;49.170;14.572;2022-09-09T20:14:49;8.30;;;3.03;;
28714;SDS011;15886;49.170;14.572;2022-09-09T20:17:16;7.47;;;3.17;;
28714;SDS011;15886;49.170;14.572;2022-09-09T20:19:44;3.50;;;2.90;;
28714;SDS011;15886;49.170;14.572;2022-09-09T20:22:12;7.65;;;3.25;;
28714;SDS011;15886;49.170;14.572;2022-09-09T20:24:40;4.97;;;3.58;;
28714;SDS011;15886;49.170;14.572;2022-09-09T20:27:10;6.88;;;3.30;;
28714;SDS011;15886;49.170;14.572;2022-09-09T20:29:38;7.05;;;3.45;;
28714;SDS011;15886;49.170;14.572;2022-09-09T20:32:06;4.00;;;3.20;;
28714;SDS011;15886;49.170;14.572;2022-09-09T20:34:35;5.90;;;3.33;;
28714;SDS011;15886;49.170;14.572;2022-09-09T20:37:03;5.38;;;3.38;;
28714;SDS011;15886;49.170;14.572;2022-09-09T20:39:32;6.93;;;3.45;;
28714;SDS011;15886;49.170;14.572;2022-09-09T20:42:02;4.35;;;2.85;;
28714;SDS011;15886;49.170;14.572;2022-09-09T20:44:30;4.50;;;2.95;;
28714;SDS011;15886;49.170;14.572;2022-09-09T20:46:58;6.28;;;3.45;;
28714;SDS011;15886;49.170;14.572;2022-09-09T20:49:32;5.93;;;3.10;;
28714;SDS011;15886;49.170;14.572;2022-09-09T20:52:03;5.38;;;3.63;;
28714;SDS011;15886;49.170;14.572;2022-09-09T20:54:31;6.45;;;2.00;;
28714;SDS011;15886;49.170;14.572;2022-09-09T20:56:59;4.55;;;2.40;;
28714;SDS011;15886;49.170;14.572;2022-09-09T20:59:28;5.65;;;1.90;;
28714;SDS011;15886;49.170;14.572;2022-09-09T21:02:00;4.80;;;2.08;;
28714;SDS011;15886;49.170;14.572;2022-09-09T21:04:29;5.03;;;2.03;;
28714;SDS011;15886;49.170;14.572;2022-09-09T21:06:57;4.22;;;1.90;;
28714;SDS011;15886;49.170;14.572;2022-09-09T21:09:26;4.78;;;1.40;;
28714;SDS011;15886;49.170;14.572;2022-09-09T21:11:54;5.00;;;1.80;;
28714;SDS011;15886;49.170;14.572;2022-09-09T21:14:22;2.42;;;1.60;;
28714;SDS011;15886;49.170;14.572;2022-09-09T21:16:50;2.20;;;1.60;;
28714;SDS011;15886;49.170;14.572;2022-09-09T21:19:18;2.20;;;1.60;;
28714;SDS011;15886;49.170;14.572;2022-09-09T21:21:46;4.80;;;1.80;;
28714;SDS011;15886;49.170;14.572;2022-09-09T21:24:14;2.38;;;1.52;;
28714;SDS011;15886;49.170;14.572;2022-09-09T21:26:43;2.55;;;1.60;;
28714;SDS011;15886;49.170;14.572;2022-09-09T21:29:11;2.60;;;1.40;;
28714;SDS011;15886;49.170;14.572;2022-09-09T21:31:39;2.92;;;1.27;;
28714;SDS011;15886;49.170;14.572;2022-09-09T21:34:07;2.92;;;1.50;;
28714;SDS011;15886;49.170;14.572;2022-09-09T21:36:36;2.85;;;1.38;;
28714;SDS011;15886;49.170;14.572;2022-09-09T21:39:04;2.70;;;1.33;;
28714;SDS011;15886;49.170;14.572;2022-09-09T21:41:32;3.35;;;1.48;;
28714;SDS011;15886;49.170;14.572;2022-09-09T21:44:00;3.30;;;1.63;;
28714;SDS011;15886;49.170;14.572;2022-09-09T21:46:28;5.45;;;1.75;;
28714;SDS011;15886;49.170;14.572;2022-09-09T21:48:56;4.93;;;1.90;;
28714;SDS011;15886;49.170;14.572;2022-09-09T21:51:25;3.20;;;1.52;;
28714;SDS011;15886;49.170;14.572;2022-09-09T21:53:54;5.00;;;2.20;;
28714;SDS011;15886;49.170;14.572;2022-09-09T21:56:22;6.40;;;1.92;;
28714;SDS011;15886;49.170;14.572;2022-09-09T21:58:54;5.53;;;2.50;;
28714;SDS011;15886;49.170;14.572;2022-09-09T22:01:23;2.38;;;1.60;;
28714;SDS011;15886;49.170;14.572;2022-09-09T22:03:52;6.15;;;2.00;;
28714;SDS011;15886;49.170;14.572;2022-09-09T22:06:20;3.92;;;1.67;;
28714;SDS011;15886;49.170;14.572;2022-09-09T22:08:48;8.10;;;1.70;;
28714;SDS011;15886;49.170;14.572;2022-09-09T22:11:17;5.55;;;1.80;;
28714;SDS011;15886;49.170;14.572;2022-09-09T22:13:48;2.42;;;1.95;;
28714;SDS011;15886;49.170;14.572;2022-09-09T22:16:17;4.00;;;1.73;;
28714;SDS011;15886;49.170;14.572;2022-09-09T22:18:50;4.50;;;1.38;;
28714;SDS011;15886;49.170;14.572;2022-09-09T22:21:20;1.92;;;1.40;;
28714;SDS011;15886;49.170;14.572;2022-09-09T22:23:56;3.45;;;1.42;;
28714;SDS011;15886;49.170;14.572;2022-09-09T22:26:26;5.45;;;1.50;;
28714;SDS011;15886;49.170;14.572;2022-09-09T22:28:55;1.95;;;1.17;;